createdAt,value
2023-04-30T00:01:13.188Z,51.56
2023-04-30T00:04:00.803Z,51.47
2023-04-30T00:06:46.411Z,51.52
2023-04-30T00:09:33.416Z,51.62
2023-04-30T00:12:19.177Z,51.61
2023-04-30T00:15:05.220Z,51.58
2023-04-30T00:17:50.588Z,51.88
2023-04-30T00:20:36.175Z,51.77
2023-04-30T00:23:21.666Z,51.74
2023-04-30T00:26:07.179Z,51.89
2023-04-30T00:28:52.822Z,51.75
2023-04-30T00:31:38.615Z,51.72
2023-04-30T00:34:24.290Z,51.76
2023-04-30T00:37:09.793Z,51.83
2023-04-30T00:39:55.649Z,51.82
2023-04-30T00:42:41.206Z,51.83
2023-04-30T00:45:26.439Z,51.89
2023-04-30T00:48:12.059Z,51.81
2023-04-30T00:50:57.378Z,51.64
2023-04-30T00:53:43.881Z,51.82
2023-04-30T00:56:31.843Z,51.70
2023-04-30T00:59:17.459Z,51.92
2023-04-30T01:02:04.090Z,51.96
2023-04-30T01:04:50.817Z,51.89
2023-04-30T01:07:46.447Z,51.84
2023-04-30T01:10:55.105Z,51.87
2023-04-30T01:14:08.303Z,51.78
2023-04-30T01:17:13.596Z,51.96
2023-04-30T01:20:01.306Z,51.79
2023-04-30T01:23:11.456Z,51.92
2023-04-30T01:26:03.028Z,51.90
2023-04-30T01:28:51.003Z,51.89
2023-04-30T01:31:36.514Z,51.94
2023-04-30T01:34:22.147Z,51.78
2023-04-30T01:37:22.702Z,51.88
2023-04-30T01:40:29.256Z,51.59
2023-04-30T01:43:23.835Z,51.77
2023-04-30T01:46:23.176Z,51.86
2023-04-30T01:49:19.677Z,51.86
2023-04-30T01:52:42.932Z,51.85
2023-04-30T01:55:55.787Z,51.99
2023-04-30T01:58:42.646Z,51.81
2023-04-30T02:01:31.252Z,51.81
2023-04-30T02:04:17.010Z,51.97
2023-04-30T02:07:02.634Z,51.83
2023-04-30T02:09:47.904Z,51.98
2023-04-30T02:12:33.420Z,51.93
2023-04-30T02:15:19.379Z,51.87
2023-04-30T02:18:05.883Z,51.83
2023-04-30T02:20:52.074Z,51.72
2023-04-30T02:23:37.891Z,51.75
2023-04-30T02:26:23.921Z,51.77
2023-04-30T02:29:09.472Z,51.51
2023-04-30T02:31:59.185Z,51.80
2023-04-30T02:34:45.204Z,51.92
2023-04-30T02:37:30.608Z,51.71
2023-04-30T02:40:15.958Z,51.74
2023-04-30T02:43:01.559Z,51.85
2023-04-30T02:45:47.105Z,51.70
2023-04-30T02:48:33.304Z,51.83
2023-04-30T02:51:18.732Z,51.76
2023-04-30T02:54:03.961Z,51.77
2023-04-30T02:56:49.177Z,51.62
2023-04-30T02:59:34.416Z,51.71
2023-04-30T03:02:21.706Z,51.72
2023-04-30T03:05:07.728Z,51.87
2023-04-30T03:07:53.344Z,51.88
2023-04-30T03:10:38.665Z,51.76
2023-04-30T03:13:26.174Z,51.68
2023-04-30T03:16:11.617Z,51.56
2023-04-30T03:18:57.433Z,51.62
2023-04-30T03:21:42.688Z,52.25
2023-04-30T03:24:28.189Z,52.28
2023-04-30T03:27:14.320Z,52.57
2023-04-30T03:29:59.778Z,52.95
2023-04-30T03:32:45.732Z,52.99
2023-04-30T03:35:30.896Z,53.05
2023-04-30T03:38:16.296Z,53.09
2023-04-30T03:41:01.515Z,53.13
2023-04-30T03:43:46.803Z,53.10
2023-04-30T03:46:32.435Z,53.21
2023-04-30T03:49:19.195Z,53.41
2023-04-30T03:52:07.207Z,53.18
2023-04-30T03:54:53.662Z,53.39
2023-04-30T03:57:40.684Z,53.18
2023-04-30T04:00:27.069Z,53.44
2023-04-30T04:03:13.219Z,53.05
2023-04-30T04:06:00.726Z,53.06
2023-04-30T04:08:46.455Z,53.17
2023-04-30T04:11:34.231Z,53.10
2023-04-30T04:14:21.046Z,52.97
2023-04-30T04:17:08.474Z,52.67
2023-04-30T04:19:54.598Z,52.97
2023-04-30T04:22:40.194Z,52.93
2023-04-30T04:25:27.826Z,52.69
2023-04-30T04:28:13.697Z,52.65
2023-04-30T04:30:59.851Z,52.69
2023-04-30T04:33:46.976Z,52.51
2023-04-30T04:36:34.482Z,52.45
2023-04-30T04:39:20.809Z,52.52
2023-04-30T04:42:06.836Z,52.56
2023-04-30T04:44:52.557Z,52.44
2023-04-30T04:47:38.459Z,52.47
2023-04-30T04:50:24.725Z,52.24
2023-04-30T04:53:10.973Z,52.17
2023-04-30T04:55:57.002Z,52.12
2023-04-30T04:58:43.081Z,52.12
2023-04-30T05:01:29.635Z,52.18
2023-04-30T05:04:15.243Z,52.12
2023-04-30T05:07:01.238Z,52.28
2023-04-30T05:09:47.468Z,52.05
2023-04-30T05:12:33.009Z,52.11
2023-04-30T05:15:18.836Z,52.00
2023-04-30T05:18:04.141Z,52.03
2023-04-30T05:20:49.532Z,51.98
2023-04-30T05:23:35.332Z,51.98
2023-04-30T05:26:21.317Z,51.92
2023-04-30T05:29:07.163Z,51.75
2023-04-30T05:31:52.476Z,51.89
2023-04-30T05:34:37.821Z,51.89
2023-04-30T05:37:23.092Z,49.56
2023-04-30T05:40:11.366Z,51.32
2023-04-30T05:42:57.462Z,51.66
2023-04-30T05:45:43.163Z,52.01
2023-04-30T05:48:29.275Z,51.95
2023-04-30T05:51:15.038Z,51.92
2023-04-30T05:54:00.540Z,51.86
2023-04-30T05:56:48.835Z,51.86
2023-04-30T05:59:34.365Z,51.93
2023-04-30T06:02:19.853Z,51.81
2023-04-30T06:05:07.907Z,51.41
2023-04-30T06:07:53.543Z,51.52
2023-04-30T06:10:39.302Z,50.10
2023-04-30T06:13:24.845Z,48.97
2023-04-30T06:16:10.049Z,47.03
2023-04-30T06:18:56.755Z,46.30
2023-04-30T06:21:44.379Z,46.38
2023-04-30T06:24:31.586Z,45.29
2023-04-30T06:27:18.563Z,46.54
2023-04-30T06:30:05.060Z,48.09
2023-04-30T06:32:50.553Z,49.04
2023-04-30T06:35:36.491Z,49.65
2023-04-30T06:38:22.180Z,49.64
2023-04-30T06:41:08.051Z,49.78
2023-04-30T06:43:53.587Z,50.01
2023-04-30T06:46:39.080Z,50.04
2023-04-30T06:49:24.775Z,50.04
2023-04-30T06:52:10.205Z,50.35
2023-04-30T06:54:55.477Z,50.42
2023-04-30T06:57:41.285Z,50.33
2023-04-30T07:00:27.322Z,50.25
2023-04-30T07:03:14.107Z,50.54
2023-04-30T07:05:59.986Z,50.39
2023-04-30T07:08:45.380Z,50.43
2023-04-30T07:11:31.141Z,50.36
2023-04-30T07:14:16.785Z,50.14
2023-04-30T07:17:02.263Z,50.22
2023-04-30T07:19:48.129Z,50.07
2023-04-30T07:22:36.052Z,50.26
2023-04-30T07:25:22.269Z,50.17
2023-04-30T07:28:08.874Z,50.48
2023-04-30T07:30:55.535Z,50.43
2023-04-30T07:33:41.321Z,50.59
2023-04-30T07:36:27.674Z,50.51
2023-04-30T07:39:14.073Z,50.55
2023-04-30T07:41:59.751Z,50.19
2023-04-30T07:44:46.782Z,50.01
2023-04-30T07:47:33.614Z,50.03
2023-04-30T07:50:22.300Z,50.22
2023-04-30T07:53:09.875Z,50.37
2023-04-30T07:55:55.490Z,50.46
2023-04-30T07:58:41.769Z,50.25
2023-04-30T08:01:28.022Z,50.36
2023-04-30T08:04:13.493Z,50.52
2023-04-30T08:07:02.195Z,50.32
2023-04-30T08:09:47.764Z,50.42
2023-04-30T08:12:37.156Z,50.28
2023-04-30T08:15:22.634Z,50.49
2023-04-30T08:18:09.837Z,50.45
2023-04-30T08:20:55.749Z,50.48
2023-04-30T08:23:41.887Z,50.27
2023-04-30T08:26:27.726Z,50.10
2023-04-30T08:29:13.621Z,49.99
2023-04-30T08:32:03.064Z,50.13
2023-04-30T08:34:48.923Z,50.33
2023-04-30T08:37:35.968Z,50.00
2023-04-30T08:40:22.141Z,49.99
2023-04-30T08:43:13.057Z,50.15
2023-04-30T08:46:00.342Z,50.14
2023-04-30T08:48:48.376Z,50.10
2023-04-30T08:51:35.051Z,50.03
2023-04-30T08:54:21.828Z,50.32
2023-04-30T08:57:08.080Z,50.26
2023-04-30T08:59:54.914Z,49.64
2023-04-30T09:02:42.495Z,49.50
2023-04-30T09:05:28.671Z,50.76
2023-04-30T09:08:19.610Z,51.16
2023-04-30T09:11:22.014Z,50.75
2023-04-30T09:14:08.290Z,50.96
2023-04-30T09:16:54.036Z,50.86
2023-04-30T09:19:39.946Z,50.91
2023-04-30T09:22:27.370Z,50.92
2023-04-30T09:25:13.966Z,50.88
2023-04-30T09:28:13.388Z,50.84
2023-04-30T09:31:00.205Z,50.70
2023-04-30T09:33:46.914Z,50.95
2023-04-30T09:36:33.349Z,51.09
2023-04-30T09:39:19.074Z,51.04
2023-04-30T09:42:11.214Z,51.09
2023-04-30T09:45:00.360Z,51.11
2023-04-30T09:47:46.217Z,51.10
2023-04-30T09:50:40.406Z,51.02
2023-04-30T09:53:28.018Z,51.04
2023-04-30T09:56:19.963Z,50.93
2023-04-30T09:59:08.680Z,51.09
2023-04-30T10:01:54.749Z,51.02
2023-04-30T10:04:44.871Z,51.35
2023-04-30T10:07:36.447Z,51.12
2023-04-30T10:10:23.065Z,51.07
2023-04-30T10:13:14.707Z,50.88
2023-04-30T10:16:33.950Z,51.35
2023-04-30T10:19:24.420Z,50.96
2023-04-30T10:22:10.934Z,51.05
2023-04-30T10:24:57.035Z,51.02
2023-04-30T10:27:42.703Z,50.81
2023-04-30T10:30:31.779Z,50.57
2023-04-30T10:33:50.029Z,50.59
2023-04-30T10:36:51.234Z,50.77
2023-04-30T10:39:38.691Z,50.76
2023-04-30T10:42:24.601Z,50.61
2023-04-30T10:45:13.233Z,50.87
2023-04-30T10:47:58.947Z,50.65
2023-04-30T10:50:46.693Z,50.71
2023-04-30T10:53:32.796Z,50.59
2023-04-30T10:56:35.610Z,50.69
2023-04-30T10:59:21.087Z,50.46
2023-04-30T11:02:10.850Z,50.59
2023-04-30T11:05:09.736Z,50.92
2023-04-30T11:07:58.990Z,50.44
2023-04-30T11:11:02.818Z,50.76
2023-04-30T11:13:57.946Z,50.65
2023-04-30T11:16:44.188Z,50.57
2023-04-30T11:19:30.273Z,50.85
2023-04-30T11:22:17.427Z,50.53
2023-04-30T11:25:13.676Z,50.58
2023-04-30T11:28:01.098Z,50.62
2023-04-30T11:30:57.723Z,50.68
2023-04-30T11:33:43.476Z,50.48
2023-04-30T11:36:31.968Z,50.55
2023-04-30T11:39:19.546Z,50.55
2023-04-30T11:42:11.236Z,44.25
2023-04-30T11:45:09.479Z,47.46
2023-04-30T11:47:55.293Z,48.56
2023-04-30T11:50:43.183Z,49.44
2023-04-30T11:53:33.305Z,49.13
2023-04-30T11:56:24.457Z,49.25
2023-04-30T11:59:11.243Z,49.31
2023-04-30T12:01:56.701Z,49.22
2023-04-30T12:04:47.291Z,49.44
2023-04-30T12:07:32.800Z,49.35
2023-04-30T12:10:20.119Z,49.33
2023-04-30T12:13:05.446Z,49.35
2023-04-30T12:15:59.614Z,49.58
2023-04-30T12:18:45.393Z,49.20
2023-04-30T12:21:31.664Z,49.42
2023-04-30T12:24:19.042Z,49.36
2023-04-30T12:27:05.541Z,49.42
2023-04-30T12:29:51.952Z,49.96
2023-04-30T12:32:39.385Z,50.04
2023-04-30T12:35:27.871Z,48.04
2023-04-30T12:38:18.558Z,43.76
2023-04-30T12:41:15.137Z,46.32
2023-04-30T12:44:26.225Z,47.58
2023-04-30T12:47:12.365Z,48.45
2023-04-30T12:49:58.900Z,49.10
2023-04-30T12:52:46.248Z,49.23
2023-04-30T12:55:31.840Z,49.18
2023-04-30T12:58:17.685Z,49.27
2023-04-30T13:01:03.541Z,49.29
2023-04-30T13:03:49.026Z,49.64
2023-04-30T13:06:35.369Z,49.52
2023-04-30T13:09:22.265Z,49.75
2023-04-30T13:12:08.438Z,49.98
2023-04-30T13:14:53.998Z,49.68
2023-04-30T13:17:39.646Z,49.89
2023-04-30T13:20:25.577Z,49.83
2023-04-30T13:23:14.483Z,49.84
2023-04-30T13:26:00.580Z,49.77
2023-04-30T13:28:46.485Z,49.93
2023-04-30T13:31:32.120Z,49.78
2023-04-30T13:34:17.438Z,49.71
2023-04-30T13:37:02.804Z,49.55
2023-04-30T13:39:48.292Z,48.82
2023-04-30T13:42:34.320Z,48.38
2023-04-30T13:45:19.586Z,48.79
2023-04-30T13:48:05.012Z,48.97
2023-04-30T13:50:52.175Z,49.14
2023-04-30T13:53:37.715Z,49.49
2023-04-30T13:56:24.272Z,49.54
2023-04-30T13:59:10.103Z,48.96
2023-04-30T14:01:56.026Z,48.73
2023-04-30T14:04:48.688Z,48.86
2023-04-30T14:07:40.473Z,48.32
2023-04-30T14:10:26.172Z,48.11
2023-04-30T14:13:11.254Z,48.18
2023-04-30T14:15:56.505Z,49.23
2023-04-30T14:18:41.763Z,48.73
2023-04-30T14:21:28.680Z,48.75
2023-04-30T14:24:15.684Z,48.29
2023-04-30T14:27:03.304Z,46.03
2023-04-30T14:29:49.383Z,46.86
2023-04-30T14:32:38.672Z,47.39
2023-04-30T14:35:24.399Z,47.89
2023-04-30T14:38:09.914Z,47.69
2023-04-30T14:40:55.745Z,47.84
2023-04-30T14:43:41.670Z,47.78
2023-04-30T14:46:27.448Z,47.58
2023-04-30T14:49:13.310Z,47.36
2023-04-30T14:51:58.533Z,47.57
2023-04-30T14:54:44.314Z,47.52
2023-04-30T14:57:29.887Z,47.82
2023-04-30T15:00:16.450Z,46.95
2023-04-30T15:03:02.052Z,46.84
2023-04-30T15:05:47.580Z,46.53
2023-04-30T15:08:33.234Z,46.45
2023-04-30T15:11:18.458Z,46.75
2023-04-30T15:14:04.361Z,46.29
2023-04-30T15:16:49.848Z,44.31
2023-04-30T15:19:35.212Z,44.62
2023-04-30T15:22:21.099Z,45.42
2023-04-30T15:25:07.160Z,45.40
2023-04-30T15:27:53.099Z,45.12
2023-04-30T15:30:39.254Z,44.68
2023-04-30T15:33:27.583Z,44.51
2023-04-30T15:36:13.397Z,44.44
2023-04-30T15:38:59.199Z,45.13
2023-04-30T15:41:44.948Z,45.31
2023-04-30T15:44:30.868Z,45.19
2023-04-30T15:47:16.336Z,45.34
2023-04-30T15:50:01.496Z,45.39
2023-04-30T15:52:47.493Z,45.67
2023-04-30T15:55:33.086Z,45.55
2023-04-30T15:58:18.495Z,45.66
2023-04-30T16:01:04.262Z,45.43
2023-04-30T16:03:49.773Z,45.89
2023-04-30T16:06:35.714Z,45.63
2023-04-30T16:09:21.478Z,45.17
2023-04-30T16:12:07.309Z,45.47
2023-04-30T16:14:53.680Z,45.44
2023-04-30T16:17:39.191Z,45.51
2023-04-30T16:20:24.704Z,45.16
2023-04-30T16:23:10.338Z,45.18
2023-04-30T16:25:56.490Z,45.63
2023-04-30T16:28:42.125Z,45.39
2023-04-30T16:31:28.052Z,45.72
2023-04-30T16:34:13.691Z,45.43
2023-04-30T16:36:59.055Z,45.32
2023-04-30T16:39:44.385Z,45.61
2023-04-30T16:42:31.396Z,46.08
2023-04-30T16:45:17.276Z,45.83
2023-04-30T16:48:02.972Z,46.18
2023-04-30T16:50:48.202Z,46.26
2023-04-30T16:53:33.986Z,46.34
2023-04-30T16:56:20.439Z,46.15
2023-04-30T16:59:06.406Z,46.50
2023-04-30T17:01:56.377Z,46.52
2023-04-30T17:04:42.095Z,46.37
2023-04-30T17:07:27.615Z,46.14
2023-04-30T17:10:13.280Z,46.25
2023-04-30T17:13:01.118Z,46.59
2023-04-30T17:15:46.569Z,46.54
2023-04-30T17:18:32.298Z,46.48
2023-04-30T17:21:18.532Z,46.34
2023-04-30T17:24:05.310Z,45.00
2023-04-30T17:26:51.068Z,42.27
2023-04-30T17:29:36.281Z,44.41
2023-04-30T17:32:21.934Z,45.93
2023-04-30T17:35:07.804Z,46.28
2023-04-30T17:37:56.216Z,46.77
2023-04-30T17:40:41.995Z,46.88
2023-04-30T17:43:27.724Z,46.99
2023-04-30T17:46:14.422Z,46.86
2023-04-30T17:49:03.661Z,46.78
2023-04-30T17:51:49.272Z,46.46
2023-04-30T17:54:34.657Z,46.84
2023-04-30T17:57:20.158Z,46.90
2023-04-30T18:00:07.265Z,46.76
2023-04-30T18:03:02.148Z,46.82
2023-04-30T18:05:47.662Z,46.85
2023-04-30T18:08:33.169Z,46.71
2023-04-30T18:11:18.681Z,46.82
2023-04-30T18:14:05.150Z,46.46
2023-04-30T18:16:51.617Z,44.00
2023-04-30T18:19:44.436Z,44.25
2023-04-30T18:22:30.024Z,45.07
2023-04-30T18:25:17.036Z,45.73
2023-04-30T18:28:03.914Z,46.17
2023-04-30T18:30:49.855Z,46.25
2023-04-30T18:33:36.419Z,46.23
2023-04-30T18:36:23.562Z,46.31
2023-04-30T18:39:12.105Z,46.15
2023-04-30T18:41:57.545Z,46.26
2023-04-30T18:44:42.923Z,46.46
2023-04-30T18:47:28.299Z,46.38
2023-04-30T18:50:17.422Z,46.67
2023-04-30T18:53:02.864Z,47.18
2023-04-30T18:55:48.241Z,43.14
2023-04-30T18:58:33.643Z,44.60
2023-04-30T19:01:21.553Z,45.68
2023-04-30T19:04:09.227Z,46.18
2023-04-30T19:06:55.821Z,46.65
2023-04-30T19:09:41.213Z,46.27
2023-04-30T19:12:26.364Z,46.37
2023-04-30T19:15:14.997Z,46.54
2023-04-30T19:18:00.711Z,46.31
2023-04-30T19:21:03.570Z,46.54
2023-04-30T19:23:49.659Z,46.75
2023-04-30T19:26:37.537Z,47.14
2023-04-30T19:29:24.630Z,47.56
2023-04-30T19:32:10.112Z,47.21
2023-04-30T19:34:56.005Z,47.62
2023-04-30T19:37:41.218Z,47.59
2023-04-30T19:40:27.477Z,47.73
2023-04-30T19:43:13.887Z,47.65
2023-04-30T19:45:59.724Z,47.83
2023-04-30T19:48:46.192Z,48.08
2023-04-30T19:51:31.958Z,48.32
2023-04-30T19:54:17.955Z,48.54
2023-04-30T19:57:03.652Z,48.28
2023-04-30T19:59:49.286Z,48.36
2023-04-30T20:02:35.227Z,48.73
2023-04-30T20:05:21.897Z,48.75
2023-04-30T20:08:08.502Z,48.67
2023-04-30T20:10:54.951Z,48.77
2023-04-30T20:13:40.834Z,49.09
2023-04-30T20:16:26.051Z,49.17
2023-04-30T20:19:13.159Z,49.17
2023-04-30T20:21:58.839Z,49.24
2023-04-30T20:24:44.907Z,49.35
2023-04-30T20:27:30.477Z,49.17
2023-04-30T20:30:16.420Z,49.23
2023-04-30T20:33:02.364Z,49.43
2023-04-30T20:35:48.411Z,49.34
2023-04-30T20:38:33.730Z,49.56
2023-04-30T20:41:19.778Z,49.61
2023-04-30T20:44:05.273Z,49.78
2023-04-30T20:46:50.714Z,49.78
2023-04-30T20:49:36.078Z,49.90
2023-04-30T20:52:21.357Z,49.96
2023-04-30T20:55:06.846Z,49.63
2023-04-30T20:57:52.627Z,49.78
2023-04-30T21:00:38.213Z,49.69
2023-04-30T21:03:23.708Z,49.75
2023-04-30T21:06:09.147Z,49.95
2023-04-30T21:08:54.466Z,49.98
2023-04-30T21:11:39.652Z,50.14
2023-04-30T21:14:25.181Z,50.15
2023-04-30T21:17:10.593Z,50.03
2023-04-30T21:19:57.152Z,49.94
2023-04-30T21:22:42.788Z,49.82
2023-04-30T21:25:27.927Z,50.17
2023-04-30T21:28:13.236Z,50.18
2023-04-30T21:30:58.498Z,49.85
2023-04-30T21:33:43.749Z,49.78
2023-04-30T21:36:30.130Z,49.66
2023-04-30T21:39:15.645Z,49.64
2023-04-30T21:42:01.173Z,49.63
2023-04-30T21:44:46.557Z,49.62
2023-04-30T21:47:31.978Z,49.65
2023-04-30T21:50:17.257Z,49.58
2023-04-30T21:53:03.634Z,49.44
2023-04-30T21:55:49.545Z,49.86
2023-04-30T21:58:35.910Z,49.52
2023-04-30T22:01:24.398Z,49.51
2023-04-30T22:04:09.609Z,49.54
2023-04-30T22:06:54.783Z,49.49
2023-04-30T22:09:40.482Z,49.37
2023-04-30T22:12:26.177Z,49.39
2023-04-30T22:15:12.209Z,49.37
2023-04-30T22:17:58.240Z,49.35
2023-04-30T22:20:43.575Z,49.52
2023-04-30T22:23:28.973Z,49.43
2023-04-30T22:26:15.428Z,49.37
2023-04-30T22:29:00.750Z,49.34
2023-04-30T22:31:46.225Z,49.24
2023-04-30T22:34:37.440Z,49.39
2023-04-30T22:37:23.186Z,49.23
2023-04-30T22:40:09.166Z,49.36
2023-04-30T22:42:54.807Z,49.16
2023-04-30T22:45:40.544Z,49.26
2023-04-30T22:48:27.699Z,49.27
2023-04-30T22:51:13.215Z,49.30
2023-04-30T22:53:58.505Z,49.19
2023-04-30T22:56:44.011Z,49.28
2023-04-30T22:59:29.273Z,49.28
2023-04-30T23:02:15.570Z,49.22
2023-04-30T23:05:00.849Z,49.24
2023-04-30T23:07:49.081Z,49.08
2023-04-30T23:10:34.648Z,49.09
2023-04-30T23:13:19.946Z,49.00
2023-04-30T23:16:08.749Z,49.21
2023-04-30T23:18:54.389Z,49.24
2023-04-30T23:21:40.322Z,49.19
2023-04-30T23:24:25.546Z,49.13
2023-04-30T23:27:11.385Z,48.94
2023-04-30T23:29:57.532Z,49.09
2023-04-30T23:32:43.285Z,49.17
2023-04-30T23:35:28.495Z,48.97
2023-04-30T23:38:15.314Z,49.05
2023-04-30T23:41:02.480Z,49.07
2023-04-30T23:43:47.695Z,49.03
2023-04-30T23:46:33.188Z,49.14
2023-04-30T23:49:19.050Z,49.04
2023-04-30T23:52:04.587Z,49.14
2023-04-30T23:54:50.496Z,49.10
2023-04-30T23:57:36.862Z,49.07
